createdAt,value
2019-04-19T00:01:01.435Z,10.10
2019-04-19T00:03:31.128Z,10.00
2019-04-19T00:06:21.474Z,10.10
2019-04-19T00:09:04.211Z,10.10
2019-04-19T00:11:27.715Z,10.00
2019-04-19T00:13:47.329Z,10.00
2019-04-19T00:16:17.304Z,10.00
2019-04-19T00:19:10.409Z,10.00
2019-04-19T00:21:34.993Z,10.00
2019-04-19T00:23:48.831Z,10.00
2019-04-19T00:26:16.987Z,9.90
2019-04-19T00:28:53.778Z,9.90
2019-04-19T00:31:29.774Z,9.90
2019-04-19T00:33:51.042Z,9.90
2019-04-19T00:36:18.192Z,9.80
2019-04-19T00:38:57.214Z,9.70
2019-04-19T00:42:10.759Z,9.70
2019-04-19T00:44:53.362Z,9.70
2019-04-19T00:47:19.542Z,9.70
2019-04-19T00:49:48.988Z,9.70
2019-04-19T00:52:14.769Z,9.60
2019-04-19T00:54:46.009Z,9.60
2019-04-19T00:57:15.587Z,9.60
2019-04-19T00:59:39.470Z,9.60
2019-04-19T01:02:13.252Z,9.70
2019-04-19T01:04:38.544Z,9.70
2019-04-19T01:07:08.765Z,9.70
2019-04-19T01:09:49.945Z,9.70
2019-04-19T01:12:20.597Z,9.70
2019-04-19T01:14:48.657Z,9.70
2019-04-19T01:17:23.831Z,9.80
2019-04-19T01:19:47.990Z,9.70
2019-04-19T01:22:17.404Z,9.80
2019-04-19T01:24:51.157Z,9.70
2019-04-19T01:27:25.712Z,9.70
2019-04-19T01:29:54.634Z,9.70
2019-04-19T01:32:23.002Z,9.60
2019-04-19T01:34:57.559Z,9.70
2019-04-19T01:37:26.354Z,9.60
2019-04-19T01:40:12.251Z,9.70
2019-04-19T01:42:41.559Z,9.70
2019-04-19T01:45:40.440Z,9.70
2019-04-19T01:48:19.112Z,9.70
2019-04-19T01:50:59.007Z,9.60
2019-04-19T01:53:30.594Z,9.60
2019-04-19T01:55:43.147Z,9.60
2019-04-19T01:58:16.130Z,9.50
2019-04-19T02:00:47.734Z,9.60
2019-04-19T02:03:12.706Z,9.60
2019-04-19T02:05:48.496Z,9.50
2019-04-19T02:08:14.461Z,9.50
2019-04-19T02:11:47.126Z,9.50
2019-04-19T02:14:15.431Z,9.50
2019-04-19T02:16:40.815Z,9.40
2019-04-19T02:19:15.778Z,9.40
2019-04-19T02:21:42.660Z,9.30
2019-04-19T02:24:12.624Z,9.20
2019-04-19T02:26:46.410Z,9.20
2019-04-19T02:29:17.781Z,9.20
2019-04-19T02:32:17.541Z,9.30
2019-04-19T02:34:40.201Z,9.20
2019-04-19T02:42:24.158Z,9.30
2019-04-19T02:44:51.242Z,9.20
2019-04-19T02:47:21.743Z,9.10
2019-04-19T02:52:22.371Z,9.10
2019-04-19T02:55:12.223Z,9.10
2019-04-19T03:03:21.466Z,9.10
2019-04-19T03:05:45.325Z,9.20
2019-04-19T03:07:55.586Z,9.20
2019-04-19T03:10:26.608Z,9.20
2019-04-19T03:13:08.000Z,9.10
2019-04-19T03:15:43.977Z,9.20
2019-04-19T03:18:19.311Z,9.20
2019-04-19T03:20:40.562Z,9.10
2019-04-19T03:23:15.274Z,9.10
2019-04-19T03:25:40.990Z,9.10
2019-04-19T03:28:14.424Z,9.00
2019-04-19T03:30:53.592Z,9.00
2019-04-19T03:33:25.412Z,8.90
2019-04-19T03:35:53.887Z,8.90
2019-04-19T03:38:24.471Z,8.80
2019-04-19T03:40:50.713Z,8.80
2019-04-19T03:43:38.390Z,8.80
2019-04-19T03:46:16.954Z,8.80
2019-04-19T03:53:45.049Z,8.70
2019-04-19T03:56:12.029Z,8.70
2019-04-19T03:58:23.155Z,8.70
2019-04-19T04:00:50.337Z,8.70
2019-04-19T04:03:27.280Z,8.70
2019-04-19T04:05:53.043Z,8.70
2019-04-19T04:08:26.296Z,8.70
2019-04-19T04:11:19.630Z,8.70
2019-04-19T04:14:03.356Z,8.70
2019-04-19T04:16:35.779Z,8.70
2019-04-19T04:18:57.644Z,8.70
2019-04-19T04:21:29.698Z,8.80
2019-04-19T04:24:10.282Z,8.80
2019-04-19T04:26:36.235Z,8.80
2019-04-19T04:29:07.742Z,8.80
2019-04-19T04:31:44.447Z,8.80
2019-04-19T04:34:10.387Z,8.70
2019-04-19T04:36:50.554Z,8.80
2019-04-19T04:39:00.890Z,8.80
2019-04-19T04:41:32.150Z,8.80
2019-04-19T04:44:20.411Z,8.80
2019-04-19T04:47:02.112Z,8.70
2019-04-19T04:50:02.167Z,8.80
2019-04-19T04:52:30.097Z,8.80
2019-04-19T04:54:59.229Z,8.80
2019-04-19T04:57:39.532Z,8.80
2019-04-19T05:00:00.887Z,8.90
2019-04-19T05:02:49.866Z,8.90
2019-04-19T05:05:21.941Z,8.90
2019-04-19T05:07:53.140Z,8.90
2019-04-19T05:10:21.670Z,9.00
2019-04-19T05:15:22.625Z,9.10
2019-04-19T05:17:58.404Z,9.20
2019-04-19T05:20:23.636Z,9.20
2019-04-19T05:22:59.260Z,9.30
2019-04-19T05:28:01.433Z,9.40
2019-04-19T05:30:15.904Z,9.50
2019-04-19T05:32:55.888Z,9.50
2019-04-19T05:35:28.469Z,9.60
2019-04-19T05:38:14.833Z,9.70
2019-04-19T05:41:06.433Z,9.70
2019-04-19T05:44:16.574Z,9.70
2019-04-19T05:46:43.124Z,9.80
2019-04-19T05:49:03.839Z,9.90
2019-04-19T05:51:38.661Z,9.90
2019-04-19T05:53:52.975Z,10.00
2019-04-19T05:56:18.297Z,10.10
2019-04-19T05:58:57.902Z,10.10
2019-04-19T06:01:36.138Z,10.10
2019-04-19T06:04:07.428Z,10.10
2019-04-19T06:06:45.144Z,10.20
2019-04-19T06:08:49.927Z,10.20
2019-04-19T06:11:23.130Z,10.20
2019-04-19T06:14:10.293Z,10.40
2019-04-19T06:16:35.060Z,10.50
2019-04-19T06:19:15.193Z,10.50
2019-04-19T06:21:42.950Z,10.60
2019-04-19T06:24:20.527Z,10.70
2019-04-19T06:29:16.318Z,10.80
2019-04-19T06:31:51.537Z,10.70
2019-04-19T06:34:20.908Z,10.80
2019-04-19T06:36:29.343Z,10.80
2019-04-19T06:38:59.320Z,10.90
2019-04-19T06:41:32.097Z,10.90
2019-04-19T06:44:08.928Z,10.90
2019-04-19T06:46:45.139Z,10.90
2019-04-19T06:49:07.477Z,11.00
2019-04-19T06:51:37.924Z,11.00
2019-04-19T06:54:05.686Z,11.10
2019-04-19T06:56:36.468Z,11.20
2019-04-19T06:59:10.875Z,11.30
2019-04-19T07:01:41.422Z,11.30
2019-04-19T07:04:02.239Z,11.30
2019-04-19T07:06:44.037Z,11.40
2019-04-19T07:09:27.171Z,11.50
2019-04-19T07:11:55.176Z,11.50
2019-04-19T07:14:11.727Z,11.50
2019-04-19T07:16:51.417Z,11.60
2019-04-19T07:19:24.554Z,11.70
2019-04-19T07:21:48.184Z,11.70
2019-04-19T07:24:30.424Z,11.80
2019-04-19T07:26:52.445Z,11.90
2019-04-19T07:29:04.699Z,11.90
2019-04-19T07:31:35.265Z,12.00
2019-04-19T07:34:15.895Z,12.10
2019-04-19T07:36:49.905Z,12.30
2019-04-19T07:39:24.214Z,12.30
2019-04-19T07:42:00.952Z,12.40
2019-04-19T07:44:37.379Z,12.40
2019-04-19T07:47:27.463Z,12.40
2019-04-19T07:49:55.800Z,12.50
2019-04-19T07:52:21.392Z,12.60
2019-04-19T07:54:47.015Z,12.60
2019-04-19T08:00:23.638Z,12.70
2019-04-19T08:02:49.537Z,12.80
2019-04-19T08:08:05.685Z,13.00
2019-04-19T08:10:08.859Z,13.10
2019-04-19T08:15:19.857Z,13.30
2019-04-19T08:17:56.833Z,13.50
2019-04-19T08:27:30.915Z,13.70
2019-04-19T08:30:02.461Z,13.80
2019-04-19T08:32:23.307Z,13.80
2019-04-19T08:34:58.125Z,14.00
2019-04-19T08:37:30.845Z,14.00
2019-04-19T08:40:08.627Z,14.10
2019-04-19T08:42:38.605Z,14.10
2019-04-19T08:45:01.765Z,14.20
2019-04-19T08:47:51.673Z,14.30
2019-04-19T08:50:22.303Z,14.30
2019-04-19T08:52:58.122Z,14.30
2019-04-19T08:55:45.137Z,14.30
2019-04-19T08:57:59.620Z,14.40
2019-04-19T09:00:53.177Z,14.50
2019-04-19T09:03:07.541Z,14.60
2019-04-19T09:05:45.692Z,14.70
2019-04-19T09:08:21.477Z,14.80
2019-04-19T09:10:49.502Z,14.90
2019-04-19T09:13:35.362Z,14.90
2019-04-19T09:15:45.685Z,14.90
2019-04-19T09:18:33.605Z,15.20
2019-04-19T09:20:50.852Z,15.50
2019-04-19T09:23:16.682Z,15.50
2019-04-19T09:25:55.144Z,15.60
2019-04-19T09:28:42.495Z,15.60
2019-04-19T09:31:02.845Z,15.60
2019-04-19T09:33:22.385Z,15.60
2019-04-19T09:35:55.028Z,15.60
2019-04-19T09:38:29.891Z,15.60
2019-04-19T09:40:55.624Z,15.80
2019-04-19T09:43:32.038Z,15.80
2019-04-19T09:45:48.896Z,16.00
2019-04-19T09:48:38.083Z,16.00
2019-04-19T09:51:06.231Z,16.20
2019-04-19T09:56:07.459Z,16.40
2019-04-19T09:58:36.845Z,16.50
2019-04-19T10:00:55.313Z,16.40
2019-04-19T10:03:31.540Z,16.50
2019-04-19T10:05:56.844Z,16.50
2019-04-19T10:08:24.393Z,16.60
2019-04-19T10:10:52.776Z,16.50
2019-04-19T10:13:21.695Z,16.60
2019-04-19T10:16:12.550Z,16.70
2019-04-19T10:18:49.125Z,16.70
2019-04-19T10:21:39.277Z,16.80
2019-04-19T10:24:13.495Z,16.80
2019-04-19T10:27:03.892Z,16.90
2019-04-19T10:29:37.175Z,17.00
2019-04-19T10:32:10.547Z,17.10
2019-04-19T10:34:39.133Z,17.30
2019-04-19T10:37:08.039Z,17.20
2019-04-19T10:39:37.337Z,17.20
2019-04-19T10:42:06.649Z,17.20
2019-04-19T10:44:36.124Z,17.20
2019-04-19T10:47:05.297Z,17.40
2019-04-19T10:49:44.104Z,17.50
2019-04-19T10:52:15.705Z,17.80
2019-04-19T10:54:45.358Z,17.90
2019-04-19T10:57:19.702Z,18.10
2019-04-19T10:59:50.554Z,18.10
2019-04-19T11:02:22.657Z,18.20
2019-04-19T11:04:53.094Z,18.40
2019-04-19T11:07:25.575Z,18.50
2019-04-19T11:09:56.055Z,18.50
2019-04-19T11:12:26.122Z,18.60
2019-04-19T11:14:55.081Z,18.60
2019-04-19T11:17:25.487Z,18.70
2019-04-19T11:20:08.405Z,18.80
2019-04-19T11:22:25.788Z,19.00
2019-04-19T11:24:56.323Z,19.20
2019-04-19T11:27:25.005Z,19.30
2019-04-19T11:29:58.584Z,19.40
2019-04-19T11:32:37.846Z,19.50
2019-04-19T11:35:09.350Z,19.60
2019-04-19T11:37:39.169Z,19.80
2019-04-19T11:40:10.947Z,19.90
2019-04-19T11:42:41.486Z,20.20
2019-04-19T11:45:12.436Z,20.50
2019-04-19T11:47:40.908Z,20.70
2019-04-19T11:50:09.707Z,20.80
2019-04-19T11:52:44.075Z,21.00
2019-04-19T11:55:14.644Z,21.20
2019-04-19T11:57:54.623Z,21.50
2019-04-19T12:00:42.200Z,21.40
2019-04-19T12:03:18.085Z,21.70
2019-04-19T12:05:47.239Z,22.10
2019-04-19T12:08:15.999Z,22.30
2019-04-19T12:10:46.539Z,22.50
2019-04-19T12:13:15.242Z,22.60
2019-04-19T12:15:48.487Z,22.90
2019-04-19T12:18:15.886Z,23.00
2019-04-19T12:20:44.919Z,23.20
2019-04-19T12:23:13.812Z,23.60
2019-04-19T12:25:43.795Z,23.90
2019-04-19T12:28:12.319Z,24.20
2019-04-19T12:30:45.255Z,24.30
2019-04-19T12:33:11.299Z,24.40
2019-04-19T12:35:41.247Z,24.70
2019-04-19T12:38:10.217Z,24.70
2019-04-19T12:40:51.931Z,24.70
2019-04-19T12:43:20.839Z,24.80
2019-04-19T12:45:51.932Z,25.10
2019-04-19T12:48:21.630Z,25.30
2019-04-19T12:50:51.482Z,25.50
2019-04-19T12:53:21.645Z,25.70
2019-04-19T12:55:50.214Z,25.90
2019-04-19T12:58:21.914Z,26.10
2019-04-19T13:01:10.041Z,26.10
2019-04-19T13:03:57.089Z,26.40
2019-04-19T13:06:27.394Z,26.50
2019-04-19T13:08:57.108Z,26.40
2019-04-19T13:11:27.092Z,26.50
2019-04-19T13:13:55.828Z,26.70
2019-04-19T13:16:24.359Z,26.70
2019-04-19T13:18:54.132Z,26.70
2019-04-19T13:21:24.098Z,26.80
2019-04-19T13:23:54.466Z,26.60
2019-04-19T13:26:23.201Z,26.50
2019-04-19T13:28:51.713Z,26.70
2019-04-19T13:31:20.754Z,26.90
2019-04-19T13:33:49.324Z,27.00
2019-04-19T13:36:22.654Z,27.10
2019-04-19T13:39:11.116Z,27.10
2019-04-19T13:41:49.043Z,27.20
2019-04-19T13:44:18.686Z,27.00
2019-04-19T13:46:48.600Z,27.00
2019-04-19T13:49:17.332Z,27.20
2019-04-19T13:51:46.096Z,27.20
2019-04-19T13:54:14.791Z,27.10
2019-04-19T13:56:45.974Z,27.10
2019-04-19T13:59:14.277Z,27.30
2019-04-19T14:01:42.925Z,27.40
2019-04-19T14:04:13.395Z,27.40
2019-04-19T14:06:42.413Z,27.60
2019-04-19T14:09:15.674Z,27.60
2019-04-19T14:11:44.964Z,27.50
2019-04-19T14:14:14.201Z,27.60
2019-04-19T14:16:43.843Z,27.70
2019-04-19T14:19:13.475Z,27.60
2019-04-19T14:21:42.658Z,27.40
2019-04-19T14:24:11.447Z,27.30
2019-04-19T14:26:49.687Z,27.20
2019-04-19T14:29:13.349Z,27.00
2019-04-19T14:31:42.121Z,26.90
2019-04-19T14:34:11.178Z,27.10
2019-04-19T14:36:40.310Z,27.20
2019-04-19T14:39:10.719Z,27.20
2019-04-19T14:41:41.386Z,27.20
2019-04-19T14:44:13.264Z,27.00
2019-04-19T14:46:43.045Z,26.80
2019-04-19T14:49:13.146Z,26.60
2019-04-19T14:51:45.913Z,26.60
2019-04-19T14:54:17.018Z,26.50
2019-04-19T14:56:47.759Z,26.50
2019-04-19T14:59:17.332Z,26.00
2019-04-19T15:02:09.101Z,25.90
2019-04-19T15:04:53.637Z,25.60
2019-04-19T15:07:22.830Z,25.30
2019-04-19T15:09:51.461Z,24.90
2019-04-19T15:12:20.710Z,24.80
2019-04-19T15:14:51.199Z,24.70
2019-04-19T15:17:22.091Z,24.50
2019-04-19T15:19:50.583Z,24.30
2019-04-19T15:22:20.021Z,24.10
2019-04-19T15:24:48.816Z,23.90
2019-04-19T15:27:19.097Z,23.90
2019-04-19T15:29:49.117Z,24.10
2019-04-19T15:32:18.136Z,24.10
2019-04-19T15:34:47.645Z,23.80
2019-04-19T15:37:16.354Z,23.60
2019-04-19T15:39:46.134Z,23.60
2019-04-19T15:42:16.190Z,23.50
2019-04-19T15:44:44.901Z,23.60
2019-04-19T15:47:14.621Z,23.50
2019-04-19T15:49:46.142Z,23.40
2019-04-19T15:52:14.964Z,23.00
2019-04-19T15:54:43.925Z,22.80
2019-04-19T15:57:12.429Z,22.70
2019-04-19T15:59:41.186Z,22.70
2019-04-19T16:02:36.039Z,22.50
2019-04-19T16:05:26.215Z,22.30
2019-04-19T16:08:06.534Z,22.40
2019-04-19T16:11:00.736Z,22.40
2019-04-19T16:13:29.997Z,22.30
2019-04-19T16:16:00.390Z,22.10
2019-04-19T16:18:30.391Z,21.90
2019-04-19T16:20:59.229Z,21.90
2019-04-19T16:23:29.867Z,21.90
2019-04-19T16:25:59.209Z,21.80
2019-04-19T16:28:29.726Z,21.80
2019-04-19T16:30:59.979Z,21.80
2019-04-19T16:33:29.875Z,21.80
2019-04-19T16:35:58.633Z,21.70
2019-04-19T16:38:28.312Z,21.60
2019-04-19T16:40:56.823Z,21.50
2019-04-19T16:43:27.064Z,21.40
2019-04-19T16:46:08.060Z,21.50
2019-04-19T16:48:26.418Z,21.40
2019-04-19T16:50:55.172Z,21.30
2019-04-19T16:53:24.007Z,21.30
2019-04-19T16:55:53.881Z,21.20
2019-04-19T16:58:22.461Z,21.10
2019-04-19T17:00:52.636Z,21.20
2019-04-19T17:03:21.606Z,21.10
2019-04-19T17:05:50.956Z,21.00
2019-04-19T17:08:21.736Z,20.90
2019-04-19T17:10:50.401Z,20.80
2019-04-19T17:13:18.780Z,20.80
2019-04-19T17:15:59.840Z,20.70
2019-04-19T17:18:39.105Z,20.70
2019-04-19T17:21:10.161Z,20.60
2019-04-19T17:23:38.614Z,20.50
2019-04-19T17:26:08.809Z,20.30
2019-04-19T17:28:39.143Z,20.10
2019-04-19T17:31:08.720Z,20.00
2019-04-19T17:33:38.149Z,19.90
2019-04-19T17:36:08.203Z,19.80
2019-04-19T17:39:47.167Z,19.50
2019-04-19T17:41:08.385Z,19.20
2019-04-19T17:43:37.581Z,19.00
2019-04-19T17:46:08.658Z,18.80
2019-04-19T17:48:38.686Z,18.70
2019-04-19T17:51:09.502Z,18.50
2019-04-19T17:53:42.618Z,18.40
2019-04-19T17:56:09.235Z,18.30
2019-04-19T17:58:38.200Z,18.20
2019-04-19T18:01:08.321Z,18.00
2019-04-19T18:03:37.386Z,17.90
2019-04-19T18:06:06.096Z,17.80
2019-04-19T18:08:37.839Z,17.70
2019-04-19T18:11:07.584Z,17.70
2019-04-19T18:13:37.253Z,17.60
2019-04-19T18:16:06.922Z,17.40
2019-04-19T18:18:41.841Z,17.40
2019-04-19T18:21:08.470Z,17.30
2019-04-19T18:23:44.663Z,17.30
2019-04-19T18:26:17.622Z,17.10
2019-04-19T18:28:43.090Z,17.10
2019-04-19T18:31:12.858Z,17.00
2019-04-19T18:33:58.861Z,16.90
2019-04-19T18:36:25.641Z,16.80
2019-04-19T18:38:53.831Z,16.70
2019-04-19T18:41:25.021Z,16.60
2019-04-19T18:44:09.078Z,16.60
2019-04-19T18:46:35.073Z,16.50
2019-04-19T18:49:17.989Z,16.40
2019-04-19T18:51:49.840Z,16.40
2019-04-19T18:54:24.688Z,16.30
2019-04-19T18:56:58.403Z,16.20
2019-04-19T18:59:24.115Z,16.10
2019-04-19T19:01:51.698Z,16.10
2019-04-19T19:04:26.417Z,16.00
2019-04-19T19:06:54.659Z,16.00
2019-04-19T19:09:33.231Z,16.00
2019-04-19T19:12:01.070Z,16.00
2019-04-19T19:14:27.005Z,15.90
2019-04-19T19:16:58.965Z,15.80
2019-04-19T19:19:31.930Z,15.70
2019-04-19T19:22:00.489Z,15.70
2019-04-19T19:24:49.298Z,15.60
2019-04-19T19:27:07.351Z,15.60
2019-04-19T19:29:32.255Z,15.50
2019-04-19T19:32:03.707Z,15.40
2019-04-19T19:34:34.451Z,15.40
2019-04-19T19:37:03.200Z,15.40
2019-04-19T19:39:36.945Z,15.30
2019-04-19T19:43:09.045Z,15.20
2019-04-19T19:44:47.908Z,15.20
2019-04-19T19:47:53.857Z,15.20
2019-04-19T19:50:22.762Z,15.10
2019-04-19T19:52:54.677Z,15.10
2019-04-19T19:55:17.121Z,15.00
2019-04-19T19:57:46.532Z,15.00
2019-04-19T20:00:13.215Z,14.90
2019-04-19T20:02:51.534Z,14.80
2019-04-19T20:05:13.125Z,14.80
2019-04-19T20:07:46.151Z,14.70
2019-04-19T20:10:13.673Z,14.70
2019-04-19T20:12:49.372Z,14.60
2019-04-19T20:15:15.206Z,14.60
2019-04-19T20:17:50.990Z,14.60
2019-04-19T20:20:16.362Z,14.40
2019-04-19T20:22:48.506Z,14.30
2019-04-19T20:25:28.784Z,14.20
2019-04-19T20:27:51.747Z,14.20
2019-04-19T20:30:19.416Z,14.20
2019-04-19T20:32:52.859Z,14.20
2019-04-19T20:35:22.611Z,14.10
2019-04-19T20:37:53.465Z,14.10
2019-04-19T20:40:20.986Z,14.10
2019-04-19T20:43:09.062Z,14.00
2019-04-19T20:45:29.023Z,13.90
2019-04-19T20:47:54.346Z,13.90
2019-04-19T20:50:28.702Z,13.80
2019-04-19T20:53:35.754Z,13.70
2019-04-19T20:56:29.347Z,13.70
2019-04-19T20:58:38.585Z,13.60
2019-04-19T21:01:01.270Z,13.50
2019-04-19T21:03:34.403Z,13.50
2019-04-19T21:06:01.840Z,13.40
2019-04-19T21:08:30.667Z,13.40
2019-04-19T21:11:02.700Z,13.40
2019-04-19T21:13:29.714Z,13.30
2019-04-19T21:15:58.426Z,13.30
2019-04-19T21:18:29.037Z,13.20
2019-04-19T21:21:03.745Z,13.10
2019-04-19T21:23:30.860Z,13.10
2019-04-19T21:26:03.614Z,13.10
2019-04-19T21:28:39.847Z,13.10
2019-04-19T21:31:04.517Z,13.10
2019-04-19T21:33:33.094Z,13.00
2019-04-19T21:36:06.358Z,13.00
2019-04-19T21:38:32.065Z,13.00
2019-04-19T21:41:04.169Z,12.90
2019-04-19T21:43:33.781Z,12.90
2019-04-19T21:46:03.640Z,12.80
2019-04-19T21:48:36.335Z,12.80
2019-04-19T21:51:03.908Z,12.80
2019-04-19T21:53:36.559Z,12.80
2019-04-19T21:56:11.126Z,12.70
2019-04-19T21:58:36.090Z,12.70
2019-04-19T22:01:12.454Z,12.70
2019-04-19T22:03:38.425Z,12.60
2019-04-19T22:06:15.095Z,12.60
2019-04-19T22:08:41.503Z,12.60
2019-04-19T22:11:08.754Z,12.50
2019-04-19T22:13:43.563Z,12.50
2019-04-19T22:16:10.591Z,12.60
2019-04-19T22:18:44.220Z,12.50
2019-04-19T22:21:10.532Z,12.50
2019-04-19T22:23:40.725Z,12.40
2019-04-19T22:26:20.196Z,12.40
2019-04-19T22:28:40.006Z,12.40
2019-04-19T22:31:10.426Z,12.30
2019-04-19T22:33:38.950Z,12.30
2019-04-19T22:36:08.884Z,12.20
2019-04-19T22:38:37.904Z,12.20
2019-04-19T22:41:12.424Z,12.20
2019-04-19T22:43:36.758Z,12.20
2019-04-19T22:46:08.791Z,12.10
2019-04-19T22:48:35.757Z,12.00
2019-04-19T22:51:10.159Z,12.00
2019-04-19T22:53:40.685Z,12.00
2019-04-19T22:56:15.940Z,12.00
2019-04-19T22:58:37.485Z,11.90
2019-04-19T23:01:19.747Z,12.00
2019-04-19T23:03:46.430Z,12.00
2019-04-19T23:06:19.824Z,12.00
2019-04-19T23:08:46.600Z,12.00
2019-04-19T23:11:15.380Z,12.00
2019-04-19T23:13:45.190Z,11.90
2019-04-19T23:16:15.523Z,11.90
2019-04-19T23:18:53.128Z,11.80
2019-04-19T23:21:19.581Z,11.70
2019-04-19T23:23:47.221Z,11.70
2019-04-19T23:26:27.939Z,11.60
2019-04-19T23:28:48.016Z,11.60
2019-04-19T23:31:18.038Z,11.60
2019-04-19T23:33:54.250Z,11.40
2019-04-19T23:36:21.051Z,11.50
2019-04-19T23:38:47.473Z,11.40
2019-04-19T23:41:17.345Z,11.40
2019-04-19T23:43:47.243Z,11.50
2019-04-19T23:46:24.010Z,11.50
2019-04-19T23:48:47.394Z,11.60
2019-04-19T23:51:16.579Z,11.60
2019-04-19T23:53:46.401Z,11.70
2019-04-19T23:56:22.416Z,11.70
2019-04-19T23:58:46.138Z,11.70
